Time;durP1;ratioP1;P1;durP2;ratioP2;P2;SDS_P1;SDS_P2;PMS_P1;PMS_P2;Temp;Humidity;BMP_temperature;BMP_pressure;BME280_temperature;BME280_humidity;BME280_pressure;Samples;Min_cycle;Max_cycle;Signal;HPM_P1;HPM_P2
2023/11/04 00:02:09;;;;;;;8.88;3.30;;;7.90;99.90;;;;;;5049818;28;20025;-72
2023/11/04 00:04:34;;;;;;;16.17;3.20;;;7.90;99.90;;;;;;5050000;28;20113;-74
2023/11/04 00:07:00;;;;;;;13.55;3.33;;;8.00;99.90;;;;;;5049561;28;20025;-73
2023/11/04 00:09:26;;;;;;;10.23;3.03;;;7.90;99.90;;;;;;5048133;28;20029;-74
2023/11/04 00:11:52;;;;;;;11.90;3.70;;;7.90;99.90;;;;;;5049627;28;20022;-74
2023/11/04 00:14:17;;;;;;;9.88;2.55;;;7.90;99.90;;;;;;5049396;28;20021;-74
2023/11/04 00:16:43;;;;;;;16.73;3.33;;;7.90;99.90;;;;;;5051175;28;20048;-74
2023/11/04 00:19:09;;;;;;;12.27;3.88;;;7.80;99.90;;;;;;5052086;28;20122;-73
2023/11/04 00:21:34;;;;;;;14.88;3.42;;;7.80;99.90;;;;;;5053299;28;20052;-74
2023/11/04 00:24:00;;;;;;;12.57;3.45;;;7.80;99.90;;;;;;5051706;28;20444;-75
2023/11/04 00:26:26;;;;;;;11.10;3.35;;;7.70;99.90;;;;;;5053732;28;20130;-74
2023/11/04 00:28:52;;;;;;;16.45;3.10;;;7.70;99.90;;;;;;5053090;28;20025;-73
2023/11/04 00:31:18;;;;;;;11.93;3.30;;;7.50;99.90;;;;;;5052401;28;20580;-74
2023/11/04 00:33:44;;;;;;;12.48;3.05;;;7.60;99.90;;;;;;5053725;28;20020;-75
2023/11/04 00:36:11;;;;;;;14.32;3.30;;;7.50;99.90;;;;;;5050604;28;20037;-74
2023/11/04 00:38:37;;;;;;;13.40;3.33;;;7.50;99.90;;;;;;5052663;28;20076;-74
2023/11/04 00:41:05;;;;;;;10.50;3.22;;;7.50;99.90;;;;;;5052975;28;20055;-74
2023/11/04 00:43:33;;;;;;;9.45;2.67;;;7.40;99.90;;;;;;5052919;28;20025;-74
2023/11/04 00:45:59;;;;;;;11.48;3.42;;;7.40;99.90;;;;;;5052344;28;20052;-72
2023/11/04 00:48:24;;;;;;;14.35;3.45;;;7.30;99.90;;;;;;5052783;28;20505;-74
2023/11/04 00:50:51;;;;;;;11.45;2.95;;;7.30;99.90;;;;;;5052031;28;20028;-74
2023/11/04 00:53:16;;;;;;;11.40;3.13;;;7.30;99.90;;;;;;5052821;28;20084;-74
2023/11/04 00:55:42;;;;;;;12.93;3.20;;;7.20;99.90;;;;;;5052752;28;20106;-75
2023/11/04 00:58:08;;;;;;;13.18;3.67;;;7.20;99.90;;;;;;5052869;28;20040;-73
2023/11/04 01:00:34;;;;;;;17.75;4.07;;;7.30;99.90;;;;;;5052308;28;20021;-74
2023/11/04 01:03:00;;;;;;;10.88;3.58;;;7.10;99.90;;;;;;5052500;28;20022;-74
2023/11/04 01:05:27;;;;;;;15.85;3.50;;;7.10;99.90;;;;;;5051720;28;20028;-75
2023/11/04 01:07:53;;;;;;;13.63;3.58;;;7.10;99.90;;;;;;5052223;28;20384;-74
2023/11/04 01:10:18;;;;;;;17.70;4.18;;;7.00;99.90;;;;;;5052509;28;20033;-74
2023/11/04 01:12:44;;;;;;;12.60;3.63;;;7.00;99.90;;;;;;5051572;28;20018;-75
2023/11/04 01:15:10;;;;;;;12.07;3.55;;;7.00;99.90;;;;;;5052602;28;20037;-74
2023/11/04 01:17:35;;;;;;;14.15;4.10;;;7.00;99.90;;;;;;5052619;28;20047;-74
2023/11/04 01:20:01;;;;;;;16.10;3.58;;;7.00;99.90;;;;;;5051640;28;20435;-74
2023/11/04 01:22:27;;;;;;;12.57;4.05;;;6.90;99.90;;;;;;5051833;28;20182;-75
2023/11/04 01:24:53;;;;;;;11.18;3.42;;;6.80;99.90;;;;;;5052166;28;20017;-73
2023/11/04 01:27:18;;;;;;;11.13;4.10;;;6.80;99.90;;;;;;5052023;28;20029;-74
2023/11/04 01:29:44;;;;;;;14.02;3.83;;;6.80;99.90;;;;;;5050889;28;20085;-75
2023/11/04 01:32:09;;;;;;;13.32;3.75;;;6.80;99.90;;;;;;5052316;28;20081;-73
2023/11/04 01:34:35;;;;;;;16.48;3.88;;;6.80;99.90;;;;;;5052169;28;20033;-73
2023/11/04 01:37:01;;;;;;;15.80;4.10;;;6.80;99.90;;;;;;5051816;28;20072;-74
2023/11/04 01:39:27;;;;;;;11.60;3.53;;;6.80;99.90;;;;;;5051324;28;20021;-74
2023/11/04 01:41:52;;;;;;;13.82;4.72;;;6.80;99.90;;;;;;5051666;28;20032;-74
2023/11/04 01:44:18;;;;;;;9.02;3.83;;;6.80;99.90;;;;;;5052209;28;20089;-73
2023/11/04 01:46:44;;;;;;;14.35;3.67;;;6.80;99.90;;;;;;5052090;28;20494;-74
2023/11/04 01:49:10;;;;;;;12.82;4.15;;;6.80;99.90;;;;;;5051839;28;20017;-74
2023/11/04 01:51:36;;;;;;;12.68;3.63;;;6.80;99.90;;;;;;5051485;28;20031;-74
2023/11/04 01:54:03;;;;;;;8.45;3.78;;;6.80;99.90;;;;;;5050326;28;20032;-74
2023/11/04 01:56:34;;;;;;;11.80;3.65;;;6.80;99.90;;;;;;5051311;28;20045;-74
2023/11/04 01:59:02;;;;;;;16.75;4.03;;;6.90;99.90;;;;;;5050452;28;20052;-74
2023/11/04 02:01:28;;;;;;;10.35;3.83;;;6.80;99.90;;;;;;5050435;28;20026;-73
2023/11/04 02:03:54;;;;;;;10.88;3.80;;;6.80;99.90;;;;;;5051109;28;20053;-72
2023/11/04 02:06:20;;;;;;;11.13;3.70;;;6.80;99.90;;;;;;5050346;28;20060;-74
2023/11/04 02:08:46;;;;;;;9.77;3.45;;;6.80;99.90;;;;;;5051580;28;20049;-74
2023/11/04 02:11:13;;;;;;;12.35;3.85;;;6.80;99.90;;;;;;5051305;28;20021;-75
2023/11/04 02:13:38;;;;;;;8.77;3.63;;;6.80;99.90;;;;;;5051226;28;20032;-74
2023/11/04 02:16:05;;;;;;;8.70;3.63;;;6.80;99.90;;;;;;5051254;28;20108;-73
2023/11/04 02:18:31;;;;;;;8.25;3.30;;;6.80;99.90;;;;;;5050984;28;20910;-74
2023/11/04 02:20:58;;;;;;;13.48;3.88;;;6.80;99.90;;;;;;5050317;28;20024;-74
2023/11/04 02:23:23;;;;;;;7.40;3.30;;;6.90;99.90;;;;;;5051051;28;20045;-74
2023/11/04 02:25:49;;;;;;;9.23;3.10;;;6.70;99.90;;;;;;5051109;28;20044;-75
2023/11/04 02:28:15;;;;;;;8.50;3.13;;;6.90;99.90;;;;;;5050474;28;20120;-74
2023/11/04 02:30:41;;;;;;;7.22;3.03;;;6.90;99.90;;;;;;5051373;28;20044;-74
2023/11/04 02:33:07;;;;;;;11.00;3.03;;;6.90;99.90;;;;;;5051037;28;21240;-74
2023/11/04 02:35:32;;;;;;;6.97;3.00;;;6.90;99.90;;;;;;5050453;28;20512;-74
2023/11/04 02:37:58;;;;;;;14.75;3.45;;;6.90;99.90;;;;;;5047766;28;20049;-74
2023/11/04 02:40:23;;;;;;;9.30;2.88;;;6.90;99.90;;;;;;5050043;28;20028;-74
2023/11/04 02:42:49;;;;;;;11.48;3.20;;;6.90;99.90;;;;;;5050147;28;20450;-74
2023/11/04 02:45:15;;;;;;;8.38;2.88;;;6.90;99.90;;;;;;5050792;28;20028;-73
2023/11/04 02:47:41;;;;;;;7.88;2.72;;;7.00;99.90;;;;;;5050675;28;20037;-75
2023/11/04 02:50:07;;;;;;;7.03;2.47;;;6.90;99.90;;;;;;5050568;28;20500;-74
2023/11/04 02:52:33;;;;;;;7.70;2.75;;;6.90;99.90;;;;;;5050878;28;20383;-74
2023/11/04 02:54:59;;;;;;;5.43;2.65;;;6.90;99.90;;;;;;5049940;28;20037;-73
2023/11/04 02:57:24;;;;;;;11.10;2.90;;;6.90;99.90;;;;;;5050231;28;20024;-73
2023/11/04 02:59:50;;;;;;;9.15;2.70;;;6.90;99.90;;;;;;5050373;28;20061;-74
2023/11/04 03:02:16;;;;;;;13.70;2.85;;;7.00;99.90;;;;;;5049903;28;20036;-74
2023/11/04 03:04:42;;;;;;;10.75;2.45;;;6.90;99.90;;;;;;5050208;28;20117;-74
2023/11/04 03:07:07;;;;;;;5.63;2.47;;;7.00;99.90;;;;;;5050989;28;20025;-73
2023/11/04 03:09:33;;;;;;;10.80;2.88;;;6.90;99.90;;;;;;5048802;28;20030;-74
2023/11/04 03:11:59;;;;;;;6.40;2.47;;;6.90;99.90;;;;;;5049906;28;20029;-75
2023/11/04 03:14:25;;;;;;;6.90;2.50;;;7.00;99.90;;;;;;5050317;28;20025;-73
2023/11/04 03:16:52;;;;;;;10.27;2.70;;;7.00;99.90;;;;;;5049650;28;20090;-74
2023/11/04 03:19:18;;;;;;;7.93;2.20;;;7.00;99.90;;;;;;5050219;28;20044;-74
2023/11/04 03:21:44;;;;;;;6.30;2.10;;;7.00;99.90;;;;;;5050093;28;20029;-74
2023/11/04 03:24:10;;;;;;;9.90;2.53;;;7.00;99.90;;;;;;5050155;28;20037;-74
2023/11/04 03:26:35;;;;;;;8.05;2.40;;;7.00;99.90;;;;;;5049424;28;20023;-74
2023/11/04 03:29:01;;;;;;;7.25;2.35;;;7.00;99.90;;;;;;5049978;28;20017;-74
2023/11/04 03:31:27;;;;;;;7.60;2.35;;;7.00;99.90;;;;;;5048507;28;20025;-74
2023/11/04 03:33:52;;;;;;;5.78;2.25;;;7.00;99.90;;;;;;5050368;28;20042;-74
2023/11/04 03:36:18;;;;;;;5.75;2.35;;;7.00;99.90;;;;;;5049469;28;20470;-74
2023/11/04 03:38:44;;;;;;;10.40;2.65;;;6.90;99.90;;;;;;5050111;28;20021;-75
2023/11/04 03:41:11;;;;;;;6.68;2.22;;;6.90;99.90;;;;;;5049171;28;20143;-74
2023/11/04 03:43:36;;;;;;;8.25;2.10;;;6.80;99.90;;;;;;5049856;28;20033;-75
2023/11/04 03:46:03;;;;;;;4.97;1.90;;;6.80;99.90;;;;;;5049735;28;20039;-72
2023/11/04 03:48:29;;;;;;;8.95;2.17;;;6.80;99.90;;;;;;5049247;28;20021;-74
2023/11/04 03:50:54;;;;;;;11.30;2.50;;;6.60;99.90;;;;;;5049955;28;20397;-74
2023/11/04 03:53:20;;;;;;;6.18;1.90;;;6.70;99.90;;;;;;5053939;28;20081;-75
2023/11/04 03:55:46;;;;;;;6.00;2.03;;;6.70;99.90;;;;;;5052782;28;20045;-74
2023/11/04 03:58:12;;;;;;;10.15;2.50;;;6.70;99.90;;;;;;5053946;28;20029;-74
2023/11/04 04:00:37;;;;;;;7.13;2.50;;;6.60;99.90;;;;;;5053684;28;20025;-74
2023/11/04 04:03:04;;;;;;;4.00;1.90;;;6.60;99.90;;;;;;5053669;28;20051;-75
2023/11/04 04:05:31;;;;;;;6.25;2.03;;;6.60;99.90;;;;;;5053370;28;20029;-74
2023/11/04 04:07:57;;;;;;;6.10;2.00;;;6.60;99.90;;;;;;5053271;28;20361;-74
2023/11/04 04:10:23;;;;;;;8.35;2.20;;;6.60;99.90;;;;;;5053268;28;20033;-74
2023/11/04 04:12:49;;;;;;;5.70;2.63;;;6.60;99.90;;;;;;5053440;28;20076;-75
2023/11/04 04:15:15;;;;;;;4.40;1.70;;;6.60;99.90;;;;;;5051791;28;20040;-75
2023/11/04 04:17:41;;;;;;;8.90;2.10;;;6.50;99.90;;;;;;5052202;28;20056;-74
2023/11/04 04:20:07;;;;;;;8.80;2.03;;;6.50;99.90;;;;;;5051991;28;20055;-74
2023/11/04 04:22:33;;;;;;;8.45;2.13;;;6.50;99.90;;;;;;5053058;28;20041;-74
2023/11/04 04:24:58;;;;;;;7.18;1.90;;;6.50;99.90;;;;;;5052868;28;20036;-74
2023/11/04 04:27:24;;;;;;;7.80;1.70;;;6.50;99.90;;;;;;5053254;28;20021;-74
2023/11/04 04:29:50;;;;;;;4.78;1.58;;;6.60;99.90;;;;;;5052394;28;20044;-73
2023/11/04 04:32:16;;;;;;;8.98;2.20;;;6.60;99.90;;;;;;5053599;28;20017;-76
2023/11/04 04:34:42;;;;;;;7.70;1.90;;;6.60;99.90;;;;;;5053129;28;20013;-76
2023/11/04 04:37:07;;;;;;;4.22;1.92;;;6.60;99.90;;;;;;5050142;28;20036;-74
2023/11/04 04:39:33;;;;;;;5.63;1.75;;;6.60;99.90;;;;;;5053271;28;20481;-75
2023/11/04 04:41:58;;;;;;;8.25;1.98;;;6.80;99.90;;;;;;5052970;28;20043;-74
2023/11/04 04:44:24;;;;;;;4.38;1.65;;;6.80;99.90;;;;;;5053101;28;20119;-74
2023/11/04 04:46:50;;;;;;;6.20;1.80;;;6.70;99.90;;;;;;5052424;28;20453;-75
2023/11/04 04:49:15;;;;;;;5.63;1.75;;;6.80;99.90;;;;;;5052596;28;20047;-74
2023/11/04 04:51:41;;;;;;;5.35;1.92;;;6.80;99.90;;;;;;5051611;28;20024;-75
2023/11/04 04:54:07;;;;;;;7.90;1.77;;;6.80;99.90;;;;;;5052850;28;20078;-75
2023/11/04 04:56:33;;;;;;;3.63;1.67;;;6.90;99.90;;;;;;5051898;28;20389;-75
2023/11/04 04:58:59;;;;;;;3.60;1.70;;;6.90;99.90;;;;;;5052051;28;20068;-74
2023/11/04 05:01:25;;;;;;;7.18;2.10;;;6.90;99.90;;;;;;5052695;28;20445;-75
2023/11/04 05:03:52;;;;;;;8.88;2.35;;;6.90;99.90;;;;;;5050361;28;20051;-75
2023/11/04 05:06:18;;;;;;;7.72;1.83;;;6.90;99.90;;;;;;5052379;28;20029;-75
2023/11/04 05:08:43;;;;;;;6.63;2.08;;;6.90;99.90;;;;;;5050303;28;20036;-76
2023/11/04 05:11:09;;;;;;;6.47;2.10;;;6.90;99.90;;;;;;5052137;28;20021;-75
2023/11/04 05:13:38;;;;;;;5.65;1.80;;;7.00;99.90;;;;;;5052416;28;20080;-75
2023/11/04 05:16:04;;;;;;;6.70;2.10;;;7.00;99.90;;;;;;5052052;28;20056;-75
2023/11/04 05:18:30;;;;;;;7.75;1.90;;;6.90;99.90;;;;;;5052264;28;20085;-75
2023/11/04 05:20:56;;;;;;;7.65;1.95;;;7.00;99.90;;;;;;5052317;28;20037;-75
2023/11/04 05:23:22;;;;;;;5.22;1.90;;;7.00;99.90;;;;;;5052097;28;20045;-75
2023/11/04 05:25:49;;;;;;;5.00;1.65;;;7.00;99.90;;;;;;5052191;28;20032;-75
2023/11/04 05:28:18;;;;;;;4.70;1.42;;;7.00;99.90;;;;;;5051426;28;20060;-75
2023/11/04 05:30:44;;;;;;;6.57;1.77;;;7.00;99.90;;;;;;5052169;28;20036;-75
2023/11/04 05:33:09;;;;;;;7.90;1.80;;;7.10;99.90;;;;;;5052168;28;20034;-75
2023/11/04 05:35:35;;;;;;;2.92;1.67;;;7.10;99.90;;;;;;5052362;28;20045;-75
2023/11/04 05:38:01;;;;;;;5.25;1.70;;;7.20;99.90;;;;;;5051648;28;20021;-76
2023/11/04 05:40:28;;;;;;;8.05;1.77;;;7.10;99.90;;;;;;5051723;28;20056;-76
2023/11/04 05:42:54;;;;;;;4.63;1.88;;;7.10;99.90;;;;;;5051524;28;20032;-75
2023/11/04 05:45:20;;;;;;;8.00;1.95;;;7.10;99.90;;;;;;5051791;28;20047;-76
2023/11/04 05:47:46;;;;;;;5.28;1.55;;;7.10;99.90;;;;;;5052066;28;20073;-74
2023/11/04 05:50:12;;;;;;;4.88;1.80;;;7.20;99.90;;;;;;5051190;28;20021;-74
2023/11/04 05:52:38;;;;;;;4.43;1.50;;;7.10;99.90;;;;;;5051813;28;20037;-75
2023/11/04 05:55:04;;;;;;;4.43;1.75;;;7.10;99.90;;;;;;5050561;28;20201;-76
2023/11/04 05:57:30;;;;;;;7.53;1.75;;;7.00;99.90;;;;;;5049641;28;20420;-75
2023/11/04 05:59:56;;;;;;;5.47;1.70;;;7.00;99.90;;;;;;5050772;28;20025;-75
2023/11/04 06:02:21;;;;;;;2.85;1.67;;;7.00;99.90;;;;;;5049908;28;20033;-75
2023/11/04 06:04:47;;;;;;;4.05;1.80;;;7.00;99.90;;;;;;5050091;28;20028;-75
2023/11/04 06:07:13;;;;;;;12.48;1.70;;;7.00;99.90;;;;;;5049853;28;20034;-76
2023/11/04 06:09:39;;;;;;;6.35;1.60;;;7.00;99.90;;;;;;5049981;28;20060;-75
2023/11/04 06:12:05;;;;;;;8.88;1.92;;;7.00;99.90;;;;;;5050837;28;20095;-76
2023/11/04 06:14:31;;;;;;;3.70;1.55;;;7.00;99.90;;;;;;5048394;28;20456;-75
2023/11/04 06:16:57;;;;;;;4.80;1.35;;;7.10;99.90;;;;;;5050608;28;20029;-74
2023/11/04 06:19:23;;;;;;;6.18;1.65;;;7.10;99.90;;;;;;5050374;28;20033;-74
2023/11/04 06:21:49;;;;;;;4.93;1.40;;;7.20;99.90;;;;;;5050296;28;20029;-76
2023/11/04 06:24:14;;;;;;;2.88;1.27;;;7.20;99.90;;;;;;5051161;28;20026;-74
2023/11/04 06:26:40;;;;;;;2.05;1.20;;;7.20;99.90;;;;;;5051019;28;20021;-75
2023/11/04 06:29:05;;;;;;;4.28;1.33;;;7.40;99.90;;;;;;5050431;28;20135;-75
2023/11/04 06:31:31;;;;;;;2.80;1.30;;;7.30;99.90;;;;;;5049570;28;20084;-75
2023/11/04 06:33:57;;;;;;;4.65;1.13;;;7.30;99.90;;;;;;5049423;28;20040;-78
2023/11/04 06:36:23;;;;;;;3.58;1.27;;;7.40;99.90;;;;;;5048143;28;20041;-75
2023/11/04 06:38:49;;;;;;;5.60;1.60;;;7.30;99.90;;;;;;5051085;28;20119;-75
2023/11/04 06:41:16;;;;;;;5.88;1.40;;;7.40;99.90;;;;;;5050762;28;20028;-78
2023/11/04 06:43:46;;;;;;;2.90;1.38;;;7.50;99.90;;;;;;5051016;28;20045;-76
2023/11/04 06:46:12;;;;;;;4.78;1.45;;;7.50;99.90;;;;;;5050450;28;20056;-76
2023/11/04 06:48:38;;;;;;;3.13;1.13;;;7.50;99.90;;;;;;5050541;28;20013;-76
2023/11/04 06:51:07;;;;;;;3.83;1.25;;;7.60;99.90;;;;;;5048473;28;20044;-74
2023/11/04 06:53:33;;;;;;;2.33;1.30;;;7.60;99.90;;;;;;5050556;28;20021;-76
2023/11/04 06:56:00;;;;;;;5.65;1.33;;;7.60;99.90;;;;;;5048942;28;20045;-77
2023/11/04 06:58:29;;;;;;;3.72;1.20;;;7.70;99.90;;;;;;5050854;28;20021;-76
2023/11/04 07:00:56;;;;;;;5.68;1.27;;;7.70;99.90;;;;;;5050111;28;20025;-77
2023/11/04 07:03:22;;;;;;;3.88;1.20;;;7.70;99.90;;;;;;5050557;28;20080;-76
2023/11/04 07:05:48;;;;;;;4.55;1.25;;;7.70;99.90;;;;;;5050564;28;20699;-75
2023/11/04 07:08:14;;;;;;;4.65;1.27;;;7.70;99.90;;;;;;5049601;28;20033;-77
2023/11/04 07:10:41;;;;;;;3.58;1.25;;;7.80;99.90;;;;;;5050312;28;20116;-75
2023/11/04 07:13:12;;;;;;;2.78;1.40;;;7.80;99.90;;;;;;5049709;28;20033;-74
2023/11/04 07:15:43;;;;;;;3.00;1.25;;;7.80;99.90;;;;;;5050069;28;20040;-77
2023/11/04 07:18:13;;;;;;;1.73;1.10;;;7.70;99.90;;;;;;5050037;28;20029;-77
2023/11/04 07:20:40;;;;;;;2.30;1.20;;;7.80;99.90;;;;;;5050622;28;20068;-75
2023/11/04 07:23:13;;;;;;;3.55;1.35;;;7.90;99.90;;;;;;5047505;28;20059;-75
2023/11/04 07:25:38;;;;;;;2.78;1.23;;;7.90;99.90;;;;;;5050535;28;20116;-76
2023/11/04 07:28:05;;;;;;;4.20;1.25;;;7.90;99.90;;;;;;5056563;28;20029;-75
2023/11/04 07:30:30;;;;;;;2.63;1.02;;;7.90;99.90;;;;;;5056676;28;20028;-74
2023/11/04 07:32:56;;;;;;;2.88;1.20;;;7.90;99.90;;;;;;5056929;28;20024;-75
2023/11/04 07:35:22;;;;;;;2.58;1.10;;;7.90;99.90;;;;;;5056237;28;20064;-76
2023/11/04 07:37:47;;;;;;;4.78;1.33;;;8.00;99.90;;;;;;5056727;28;20045;-75
2023/11/04 07:40:14;;;;;;;7.60;1.38;;;8.00;99.90;;;;;;5057148;28;21401;-75
2023/11/04 07:42:40;;;;;;;4.60;1.33;;;8.00;99.90;;;;;;5055556;28;20025;-77
2023/11/04 07:45:10;;;;;;;6.53;1.30;;;8.10;99.90;;;;;;5056618;28;20017;-75
2023/11/04 07:47:36;;;;;;;2.13;1.00;;;8.10;99.90;;;;;;5056840;28;20021;-76
2023/11/04 07:50:01;;;;;;;3.05;1.00;;;8.20;99.90;;;;;;5054944;28;20053;-76
2023/11/04 07:52:27;;;;;;;5.50;1.35;;;8.10;99.90;;;;;;5054645;28;20029;-77
2023/11/04 07:54:53;;;;;;;2.67;0.90;;;8.20;99.90;;;;;;5055851;28;20033;-74
2023/11/04 07:57:19;;;;;;;5.50;1.27;;;8.40;99.90;;;;;;5056711;28;20018;-74
2023/11/04 07:59:45;;;;;;;2.45;1.15;;;8.20;99.90;;;;;;5056742;28;20021;-76
2023/11/04 08:02:17;;;;;;;2.83;1.30;;;8.30;99.90;;;;;;5057082;28;20021;-78
2023/11/04 08:04:43;;;;;;;6.05;1.15;;;8.20;99.90;;;;;;5055574;28;20045;-76
2023/11/04 08:07:09;;;;;;;1.77;0.90;;;8.40;99.90;;;;;;5055245;28;20080;-76
2023/11/04 08:09:35;;;;;;;3.58;1.02;;;8.30;99.90;;;;;;5056186;28;20029;-78
2023/11/04 08:12:01;;;;;;;3.42;1.20;;;8.40;99.90;;;;;;5056122;28;20420;-76
2023/11/04 08:14:26;;;;;;;2.30;1.00;;;8.40;99.90;;;;;;5056578;28;20123;-74
2023/11/04 08:16:53;;;;;;;4.38;0.85;;;8.50;99.90;;;;;;5055945;28;20039;-75
2023/11/04 08:19:19;;;;;;;3.45;1.08;;;8.40;99.90;;;;;;5056294;28;20013;-76
2023/11/04 08:21:49;;;;;;;6.10;1.40;;;8.50;99.90;;;;;;5056652;28;20021;-76
2023/11/04 08:24:15;;;;;;;4.28;1.40;;;8.60;99.90;;;;;;5056608;28;20021;-75
2023/11/04 08:26:41;;;;;;;5.03;1.20;;;8.50;99.90;;;;;;5054801;28;20025;-74
2023/11/04 08:29:13;;;;;;;3.25;1.10;;;8.60;99.90;;;;;;5055039;28;20036;-75
2023/11/04 08:31:40;;;;;;;2.13;1.00;;;8.50;99.90;;;;;;5055890;28;20030;-75
2023/11/04 08:34:05;;;;;;;3.15;0.80;;;8.60;99.90;;;;;;5054308;28;20013;-76
2023/11/04 08:36:31;;;;;;;6.30;1.23;;;8.60;99.90;;;;;;5052442;28;20391;-74
2023/11/04 08:38:57;;;;;;;2.55;1.27;;;8.60;99.90;;;;;;5051907;28;20029;-76
2023/11/04 08:41:23;;;;;;;2.72;1.35;;;8.70;99.90;;;;;;5051927;28;20030;-75
2023/11/04 08:43:48;;;;;;;1.15;0.70;;;8.70;99.90;;;;;;5052290;28;20047;-76
2023/11/04 08:46:18;;;;;;;3.72;0.90;;;8.70;99.90;;;;;;5049350;28;20121;-76
2023/11/04 08:48:47;;;;;;;1.65;0.88;;;8.80;99.90;;;;;;5052250;28;20029;-75
2023/11/04 08:51:13;;;;;;;4.72;1.35;;;8.70;99.90;;;;;;5051618;28;20097;-74
2023/11/04 08:53:39;;;;;;;1.80;0.85;;;8.80;99.90;;;;;;5052590;28;20041;-76
2023/11/04 08:56:06;;;;;;;4.05;1.20;;;8.80;99.90;;;;;;5050287;28;20056;-75
2023/11/04 08:58:34;;;;;;;4.93;1.15;;;8.80;99.90;;;;;;5051386;28;20029;-74
2023/11/04 09:01:00;;;;;;;2.53;1.20;;;8.90;99.90;;;;;;5051028;28;20049;-77
2023/11/04 09:03:27;;;;;;;3.17;0.93;;;9.00;99.90;;;;;;5052533;28;20051;-76
2023/11/04 09:05:53;;;;;;;3.20;1.23;;;9.10;99.90;;;;;;5052354;28;20028;-76
2023/11/04 09:08:22;;;;;;;5.47;1.50;;;9.20;99.90;;;;;;5051548;28;20530;-77
2023/11/04 09:10:48;;;;;;;4.43;1.20;;;9.20;99.90;;;;;;5052752;28;20022;-75
2023/11/04 09:13:14;;;;;;;2.65;1.13;;;9.30;99.90;;;;;;5052071;28;20024;-74
2023/11/04 09:15:40;;;;;;;3.22;1.13;;;9.40;99.90;;;;;;5052812;28;20048;-74
2023/11/04 09:18:06;;;;;;;5.22;1.35;;;9.40;99.90;;;;;;5052247;28;20041;-75
2023/11/04 09:20:32;;;;;;;5.03;1.02;;;9.50;99.90;;;;;;5051282;28;20039;-76
2023/11/04 09:22:58;;;;;;;3.25;1.10;;;9.50;99.90;;;;;;5052603;28;20053;-76
2023/11/04 09:25:24;;;;;;;2.17;1.17;;;9.40;99.90;;;;;;5052280;28;20118;-75
2023/11/04 09:27:53;;;;;;;2.30;0.90;;;9.40;99.90;;;;;;5050621;28;20038;-74
2023/11/04 09:30:19;;;;;;;3.50;0.95;;;9.40;99.90;;;;;;5051598;28;20033;-76
2023/11/04 09:32:46;;;;;;;1.27;0.80;;;9.40;99.90;;;;;;5052857;28;20061;-75
2023/11/04 09:35:16;;;;;;;2.58;0.80;;;9.40;99.90;;;;;;5045276;28;20045;-77
2023/11/04 09:37:43;;;;;;;3.28;1.05;;;9.40;99.90;;;;;;5053039;28;20039;-76
2023/11/04 09:40:09;;;;;;;3.80;1.10;;;9.40;99.90;;;;;;5051022;28;20036;-76
2023/11/04 09:42:36;;;;;;;2.17;0.90;;;9.40;99.90;;;;;;5049940;28;20051;-74
2023/11/04 09:45:04;;;;;;;5.68;1.30;;;9.30;99.90;;;;;;5052117;28;20067;-74
2023/11/04 09:47:31;;;;;;;4.05;1.05;;;9.30;99.90;;;;;;5051885;28;20096;-72
2023/11/04 09:49:57;;;;;;;3.35;1.00;;;9.30;99.90;;;;;;5050584;28;20044;-73
2023/11/04 09:52:26;;;;;;;2.38;1.23;;;9.40;99.90;;;;;;5052156;28;20104;-74
2023/11/04 09:54:52;;;;;;;5.60;0.90;;;9.40;99.90;;;;;;5050069;28;20021;-78
2023/11/04 09:57:18;;;;;;;2.35;0.90;;;9.40;99.90;;;;;;5050807;28;20092;-74
2023/11/04 09:59:44;;;;;;;3.13;1.13;;;9.50;99.90;;;;;;5052389;28;20025;-73
2023/11/04 10:02:11;;;;;;;4.47;1.17;;;9.50;99.90;;;;;;5049943;28;20041;-75
2023/11/04 10:04:38;;;;;;;2.65;1.10;;;9.60;99.90;;;;;;5051959;28;20032;-74
2023/11/04 10:07:04;;;;;;;2.60;1.02;;;9.70;99.90;;;;;;5050582;28;20029;-72
2023/11/04 10:09:29;;;;;;;2.70;1.00;;;9.80;99.90;;;;;;5048605;28;20152;-75
2023/11/04 10:11:55;;;;;;;2.65;0.95;;;10.00;99.90;;;;;;5051418;28;20106;-74
2023/11/04 10:14:21;;;;;;;2.20;0.80;;;10.20;99.90;;;;;;5051827;28;20021;-73
2023/11/04 10:16:51;;;;;;;3.58;0.90;;;10.40;99.90;;;;;;5050114;28;20899;-74
2023/11/04 10:19:17;;;;;;;8.18;1.10;;;10.50;99.90;;;;;;5051643;28;20097;-73
2023/11/04 10:21:44;;;;;;;2.60;1.13;;;10.50;99.90;;;;;;5051257;28;20033;-75
2023/11/04 10:24:10;;;;;;;2.33;0.90;;;10.50;99.90;;;;;;5047193;28;20456;-72
2023/11/04 10:26:36;;;;;;;3.05;0.90;;;10.30;99.90;;;;;;5050298;28;20051;-75
2023/11/04 10:29:03;;;;;;;1.92;0.93;;;10.40;99.90;;;;;;5050534;28;20029;-73
2023/11/04 10:31:30;;;;;;;2.58;0.98;;;10.30;99.90;;;;;;5051188;28;20025;-75
2023/11/04 10:34:00;;;;;;;2.00;0.88;;;10.40;99.90;;;;;;5051333;28;20028;-73
2023/11/04 10:36:25;;;;;;;3.65;1.60;;;10.40;99.90;;;;;;5048991;28;20079;-74
2023/11/04 10:39:00;;;;;;;1.58;0.90;;;10.40;99.90;;;;;;5050683;28;20236;-75
2023/11/04 10:41:53;;;;;;;1.35;0.70;;;10.40;99.90;;;;;;5047748;28;20164;-75
2023/11/04 10:44:25;;;;;;;3.00;0.80;;;10.50;99.90;;;;;;5049406;28;20021;-72
2023/11/04 10:46:57;;;;;;;2.63;0.60;;;10.50;99.90;;;;;;5050837;28;20121;-74
2023/11/04 10:49:30;;;;;;;1.65;0.70;;;10.60;99.90;;;;;;5049791;28;20112;-74
2023/11/04 10:52:09;;;;;;;2.33;1.00;;;10.60;99.90;;;;;;5049096;28;20078;-74
2023/11/04 10:54:44;;;;;;;2.80;0.88;;;10.60;99.90;;;;;;5044930;28;20025;-73
2023/11/04 10:57:33;;;;;;;6.63;0.77;;;10.70;99.90;;;;;;5044988;28;20114;-73
2023/11/04 11:00:14;;;;;;;6.20;1.00;;;10.70;99.90;;;;;;5048381;28;20033;-74
2023/11/04 11:02:45;;;;;;;1.38;0.60;;;10.70;99.90;;;;;;5047289;28;20041;-74
2023/11/04 11:05:15;;;;;;;4.00;0.90;;;10.70;99.90;;;;;;5049085;28;20059;-72
2023/11/04 11:07:43;;;;;;;3.47;0.85;;;10.80;99.90;;;;;;5048569;28;20079;-72
2023/11/04 11:10:11;;;;;;;4.10;0.98;;;10.80;99.90;;;;;;5048590;28;20163;-73
2023/11/04 11:12:46;;;;;;;2.83;0.80;;;10.80;99.90;;;;;;5049494;28;20033;-74
2023/11/04 11:15:12;;;;;;;1.23;0.80;;;10.80;99.90;;;;;;5048301;28;20037;-73
2023/11/04 11:17:38;;;;;;;4.35;1.02;;;10.90;99.90;;;;;;5049019;28;20086;-73
2023/11/04 11:20:09;;;;;;;3.85;0.70;;;11.10;99.90;;;;;;5048830;28;20381;-72
2023/11/04 11:22:38;;;;;;;2.13;0.70;;;11.30;99.90;;;;;;5048970;28;20107;-74
2023/11/04 11:25:04;;;;;;;0.80;0.68;;;11.30;99.90;;;;;;5048020;28;20041;-74
2023/11/04 11:27:30;;;;;;;2.80;0.90;;;11.40;99.90;;;;;;5049051;28;20033;-73
2023/11/04 11:30:03;;;;;;;1.92;0.85;;;11.40;99.90;;;;;;5048601;28;20025;-73
2023/11/04 11:32:36;;;;;;;5.23;0.83;;;11.50;99.90;;;;;;5048620;28;20391;-71
2023/11/04 11:35:04;;;;;;;2.60;0.93;;;11.60;99.90;;;;;;5047587;28;20040;-73
2023/11/04 11:37:31;;;;;;;1.30;0.70;;;12.00;99.90;;;;;;5048253;28;20033;-75
2023/11/04 11:39:56;;;;;;;2.53;0.90;;;12.50;99.90;;;;;;5046196;28;20031;-73
2023/11/04 11:42:26;;;;;;;2.25;0.82;;;12.80;99.90;;;;;;5048192;28;20022;-72
2023/11/04 11:44:54;;;;;;;1.90;1.02;;;12.70;99.90;;;;;;5048103;28;20025;-74
2023/11/04 11:47:20;;;;;;;1.58;0.70;;;12.50;99.90;;;;;;5047766;28;20085;-73
2023/11/04 11:49:46;;;;;;;3.65;1.38;;;12.30;99.90;;;;;;5049385;28;20083;-74
2023/11/04 11:52:13;;;;;;;3.33;0.80;;;12.10;99.90;;;;;;5049390;28;20096;-74
2023/11/04 11:54:39;;;;;;;2.92;0.88;;;12.30;99.90;;;;;;5047734;28;20029;-74
2023/11/04 11:57:05;;;;;;;3.55;1.30;;;12.30;99.90;;;;;;5049337;28;20052;-75
2023/11/04 11:59:34;;;;;;;2.08;1.00;;;12.10;99.90;;;;;;5047262;28;20028;-73
2023/11/04 12:01:59;;;;;;;2.60;1.13;;;12.00;99.90;;;;;;5048687;28;20018;-73
2023/11/04 12:04:26;;;;;;;1.80;1.08;;;11.80;99.90;;;;;;5049428;28;20032;-74
2023/11/04 12:06:54;;;;;;;3.08;1.25;;;11.70;99.90;;;;;;5046276;28;20048;-74
2023/11/04 12:09:22;;;;;;;1.77;1.10;;;11.60;99.90;;;;;;5048023;28;20123;-75
2023/11/04 12:11:51;;;;;;;1.95;0.98;;;11.60;99.90;;;;;;5049291;28;20025;-76
2023/11/04 12:14:16;;;;;;;6.78;1.20;;;11.60;99.90;;;;;;5053660;28;20083;-75
2023/11/04 12:16:42;;;;;;;3.65;1.17;;;11.60;99.90;;;;;;5053807;28;20117;-76
2023/11/04 12:19:09;;;;;;;1.20;0.90;;;11.50;99.90;;;;;;5053687;28;20030;-75
2023/11/04 12:21:35;;;;;;;1.67;1.00;;;11.30;99.90;;;;;;5051102;28;20026;-74
2023/11/04 12:24:01;;;;;;;1.92;1.20;;;11.30;99.90;;;;;;5051575;28;20029;-74
2023/11/04 12:26:30;;;;;;;1.63;1.30;;;11.20;99.90;;;;;;5052573;28;20147;-74
2023/11/04 12:28:57;;;;;;;3.50;1.30;;;11.20;99.90;;;;;;5050343;28;20052;-74
2023/11/04 12:31:23;;;;;;;2.72;1.30;;;11.20;99.90;;;;;;5066877;28;20155;-75
2023/11/04 12:33:51;;;;;;;1.83;1.02;;;11.10;99.90;;;;;;5049921;28;20045;-72
2023/11/04 12:36:17;;;;;;;2.25;1.15;;;11.10;99.90;;;;;;5050695;28;20051;-74
2023/11/04 12:38:43;;;;;;;2.05;0.98;;;11.10;99.90;;;;;;5052502;28;20021;-70
2023/11/04 12:41:10;;;;;;;5.35;1.20;;;11.20;99.90;;;;;;5051887;28;20057;-76
2023/11/04 12:43:37;;;;;;;2.75;1.10;;;11.20;99.90;;;;;;5051623;28;20013;-75
2023/11/04 12:46:03;;;;;;;2.78;1.10;;;11.20;99.90;;;;;;5050673;28;20087;-73
2023/11/04 12:48:29;;;;;;;2.70;1.27;;;11.30;99.90;;;;;;5050505;28;20025;-74
2023/11/04 12:50:54;;;;;;;3.60;0.98;;;11.40;99.90;;;;;;5049944;28;20477;-75